sensor_id;sensor_type;location;lat;lon;timestamp;temperature;humidity
19017;DHT22;9641;51.494;6.670;2023-03-14T00:00:49;11.60;1.00
19017;DHT22;9641;51.494;6.670;2023-03-14T00:03:16;11.70;1.00
19017;DHT22;9641;51.494;6.670;2023-03-14T00:05:43;11.70;1.00
19017;DHT22;9641;51.494;6.670;2023-03-14T00:08:10;11.70;1.00
19017;DHT22;9641;51.494;6.670;2023-03-14T00:10:38;11.80;1.00
19017;DHT22;9641;51.494;6.670;2023-03-14T00:13:06;11.80;1.00
19017;DHT22;9641;51.494;6.670;2023-03-14T00:15:33;11.90;1.00
19017;DHT22;9641;51.494;6.670;2023-03-14T00:18:00;11.90;1.00
19017;DHT22;9641;51.494;6.670;2023-03-14T00:20:27;11.90;1.00
19017;DHT22;9641;51.494;6.670;2023-03-14T00:22:54;11.90;1.00
19017;DHT22;9641;51.494;6.670;2023-03-14T00:25:22;12.00;1.00
19017;DHT22;9641;51.494;6.670;2023-03-14T00:27:50;12.00;1.00
19017;DHT22;9641;51.494;6.670;2023-03-14T00:30:19;12.00;1.00
19017;DHT22;9641;51.494;6.670;2023-03-14T00:32:46;12.00;17.60
19017;DHT22;9641;51.494;6.670;2023-03-14T00:35:13;11.50;99.90
19017;DHT22;9641;51.494;6.670;2023-03-14T00:37:40;11.10;99.90
19017;DHT22;9641;51.494;6.670;2023-03-14T00:40:08;10.80;99.90
19017;DHT22;9641;51.494;6.670;2023-03-14T00:42:35;10.70;99.90
19017;DHT22;9641;51.494;6.670;2023-03-14T00:45:03;10.60;99.90
19017;DHT22;9641;51.494;6.670;2023-03-14T00:47:34;10.60;99.90
19017;DHT22;9641;51.494;6.670;2023-03-14T00:50:02;10.50;99.90
19017;DHT22;9641;51.494;6.670;2023-03-14T00:52:29;10.50;99.90
19017;DHT22;9641;51.494;6.670;2023-03-14T00:54:56;10.50;99.90
19017;DHT22;9641;51.494;6.670;2023-03-14T00:57:23;10.40;99.90
19017;DHT22;9641;51.494;6.670;2023-03-14T00:59:51;10.40;99.90
19017;DHT22;9641;51.494;6.670;2023-03-14T01:02:18;10.30;99.90
19017;DHT22;9641;51.494;6.670;2023-03-14T01:04:48;10.30;99.90
19017;DHT22;9641;51.494;6.670;2023-03-14T01:07:16;10.20;99.90
19017;DHT22;9641;51.494;6.670;2023-03-14T01:09:43;10.20;99.90
19017;DHT22;9641;51.494;6.670;2023-03-14T01:12:10;10.20;99.90
19017;DHT22;9641;51.494;6.670;2023-03-14T01:14:37;10.20;99.90
19017;DHT22;9641;51.494;6.670;2023-03-14T01:17:04;10.20;99.90
19017;DHT22;9641;51.494;6.670;2023-03-14T01:19:31;10.10;99.90
19017;DHT22;9641;51.494;6.670;2023-03-14T01:22:00;10.10;99.90
19017;DHT22;9641;51.494;6.670;2023-03-14T01:24:27;10.20;99.90
19017;DHT22;9641;51.494;6.670;2023-03-14T01:26:54;10.20;99.90
19017;DHT22;9641;51.494;6.670;2023-03-14T01:29:23;10.20;99.90
19017;DHT22;9641;51.494;6.670;2023-03-14T01:31:50;10.30;99.90
19017;DHT22;9641;51.494;6.670;2023-03-14T01:34:17;10.30;99.90
19017;DHT22;9641;51.494;6.670;2023-03-14T01:36:44;10.40;99.90
19017;DHT22;9641;51.494;6.670;2023-03-14T01:39:13;10.40;99.90
19017;DHT22;9641;51.494;6.670;2023-03-14T01:41:41;10.40;99.90
19017;DHT22;9641;51.494;6.670;2023-03-14T01:44:09;10.40;99.90
19017;DHT22;9641;51.494;6.670;2023-03-14T01:46:38;10.40;99.90
19017;DHT22;9641;51.494;6.670;2023-03-14T01:49:11;10.40;99.90
19017;DHT22;9641;51.494;6.670;2023-03-14T01:51:46;10.30;99.90
19017;DHT22;9641;51.494;6.670;2023-03-14T01:54:20;10.30;99.90
19017;DHT22;9641;51.494;6.670;2023-03-14T01:56:52;10.20;99.90
19017;DHT22;9641;51.494;6.670;2023-03-14T01:59:21;10.20;99.90
19017;DHT22;9641;51.494;6.670;2023-03-14T02:01:50;10.20;99.90
19017;DHT22;9641;51.494;6.670;2023-03-14T02:04:19;10.10;99.90
19017;DHT22;9641;51.494;6.670;2023-03-14T02:06:51;10.10;99.90
19017;DHT22;9641;51.494;6.670;2023-03-14T02:09:24;10.10;99.90
19017;DHT22;9641;51.494;6.670;2023-03-14T02:11:51;10.20;99.90
19017;DHT22;9641;51.494;6.670;2023-03-14T02:14:54;10.30;99.90
19017;DHT22;9641;51.494;6.670;2023-03-14T02:17:25;10.30;99.90
19017;DHT22;9641;51.494;6.670;2023-03-14T02:20:14;10.30;99.90
19017;DHT22;9641;51.494;6.670;2023-03-14T02:22:45;10.30;99.90
19017;DHT22;9641;51.494;6.670;2023-03-14T02:25:19;10.40;99.90
19017;DHT22;9641;51.494;6.670;2023-03-14T02:27:52;10.40;99.90
19017;DHT22;9641;51.494;6.670;2023-03-14T02:30:21;10.40;99.90
19017;DHT22;9641;51.494;6.670;2023-03-14T02:32:52;10.30;99.90
19017;DHT22;9641;51.494;6.670;2023-03-14T02:35:23;10.30;99.90
19017;DHT22;9641;51.494;6.670;2023-03-14T02:37:53;10.20;99.90
19017;DHT22;9641;51.494;6.670;2023-03-14T02:40:23;10.20;99.90
19017;DHT22;9641;51.494;6.670;2023-03-14T02:42:53;10.20;99.90
19017;DHT22;9641;51.494;6.670;2023-03-14T02:45:37;10.20;99.90
19017;DHT22;9641;51.494;6.670;2023-03-14T02:48:06;10.20;99.90
19017;DHT22;9641;51.494;6.670;2023-03-14T02:50:37;10.20;99.90
19017;DHT22;9641;51.494;6.670;2023-03-14T02:53:04;10.20;99.90
19017;DHT22;9641;51.494;6.670;2023-03-14T02:55:31;10.20;99.90
19017;DHT22;9641;51.494;6.670;2023-03-14T02:58:05;10.20;99.90
19017;DHT22;9641;51.494;6.670;2023-03-14T03:00:32;10.30;99.90
19017;DHT22;9641;51.494;6.670;2023-03-14T03:03:01;10.30;99.90
19017;DHT22;9641;51.494;6.670;2023-03-14T03:05:28;10.30;99.90
19017;DHT22;9641;51.494;6.670;2023-03-14T03:07:55;10.40;99.90
19017;DHT22;9641;51.494;6.670;2023-03-14T03:10:23;10.40;99.90
19017;DHT22;9641;51.494;6.670;2023-03-14T03:12:50;10.40;99.90
19017;DHT22;9641;51.494;6.670;2023-03-14T03:15:23;10.40;99.90
19017;DHT22;9641;51.494;6.670;2023-03-14T03:17:50;10.40;99.90
19017;DHT22;9641;51.494;6.670;2023-03-14T03:20:17;10.40;99.90
19017;DHT22;9641;51.494;6.670;2023-03-14T03:22:44;10.50;99.90
19017;DHT22;9641;51.494;6.670;2023-03-14T03:25:11;10.50;99.90
19017;DHT22;9641;51.494;6.670;2023-03-14T03:27:38;10.50;99.90
19017;DHT22;9641;51.494;6.670;2023-03-14T03:30:07;10.50;99.90
19017;DHT22;9641;51.494;6.670;2023-03-14T03:32:37;10.50;99.90
19017;DHT22;9641;51.494;6.670;2023-03-14T03:35:05;10.50;99.90
19017;DHT22;9641;51.494;6.670;2023-03-14T03:37:36;10.50;99.90
19017;DHT22;9641;51.494;6.670;2023-03-14T03:40:06;10.50;99.90
19017;DHT22;9641;51.494;6.670;2023-03-14T03:42:35;10.50;99.90
19017;DHT22;9641;51.494;6.670;2023-03-14T03:45:05;10.50;99.90
19017;DHT22;9641;51.494;6.670;2023-03-14T03:47:37;10.50;99.90
19017;DHT22;9641;51.494;6.670;2023-03-14T03:50:05;10.50;99.90
19017;DHT22;9641;51.494;6.670;2023-03-14T03:52:32;10.50;99.90
19017;DHT22;9641;51.494;6.670;2023-03-14T03:54:59;10.50;99.90
19017;DHT22;9641;51.494;6.670;2023-03-14T03:57:27;10.50;99.90
19017;DHT22;9641;51.494;6.670;2023-03-14T03:59:56;10.50;99.90
19017;DHT22;9641;51.494;6.670;2023-03-14T04:02:23;10.40;99.90
19017;DHT22;9641;51.494;6.670;2023-03-14T04:04:52;10.40;99.90
19017;DHT22;9641;51.494;6.670;2023-03-14T04:07:19;10.40;99.90
19017;DHT22;9641;51.494;6.670;2023-03-14T04:09:46;10.40;99.90
19017;DHT22;9641;51.494;6.670;2023-03-14T04:12:42;10.40;99.90
19017;DHT22;9641;51.494;6.670;2023-03-14T04:15:13;10.40;99.90
19017;DHT22;9641;51.494;6.670;2023-03-14T04:17:45;10.50;99.90
19017;DHT22;9641;51.494;6.670;2023-03-14T04:20:15;10.40;99.90
19017;DHT22;9641;51.494;6.670;2023-03-14T04:22:42;10.40;99.90
19017;DHT22;9641;51.494;6.670;2023-03-14T04:25:09;10.40;99.90
19017;DHT22;9641;51.494;6.670;2023-03-14T04:27:41;10.40;99.90
19017;DHT22;9641;51.494;6.670;2023-03-14T04:30:16;10.30;99.90
19017;DHT22;9641;51.494;6.670;2023-03-14T04:32:51;10.20;99.90
19017;DHT22;9641;51.494;6.670;2023-03-14T04:35:21;10.00;99.90
19017;DHT22;9641;51.494;6.670;2023-03-14T04:37:51;10.00;99.90
19017;DHT22;9641;51.494;6.670;2023-03-14T04:40:22;9.80;99.90
19017;DHT22;9641;51.494;6.670;2023-03-14T04:42:52;9.80;99.90
19017;DHT22;9641;51.494;6.670;2023-03-14T04:45:20;9.70;99.90
19017;DHT22;9641;51.494;6.670;2023-03-14T04:47:48;9.60;99.90
19017;DHT22;9641;51.494;6.670;2023-03-14T04:50:18;9.40;99.90
19017;DHT22;9641;51.494;6.670;2023-03-14T04:52:47;9.30;99.90
19017;DHT22;9641;51.494;6.670;2023-03-14T04:55:15;9.20;99.90
19017;DHT22;9641;51.494;6.670;2023-03-14T04:57:42;9.20;99.90
19017;DHT22;9641;51.494;6.670;2023-03-14T05:00:10;9.10;99.90
19017;DHT22;9641;51.494;6.670;2023-03-14T05:02:59;9.10;99.90
19017;DHT22;9641;51.494;6.670;2023-03-14T05:05:31;9.00;99.90
19017;DHT22;9641;51.494;6.670;2023-03-14T05:08:18;9.00;99.90
19017;DHT22;9641;51.494;6.670;2023-03-14T05:11:00;9.00;99.90
19017;DHT22;9641;51.494;6.670;2023-03-14T05:13:39;8.90;99.90
19017;DHT22;9641;51.494;6.670;2023-03-14T05:16:35;8.90;99.90
19017;DHT22;9641;51.494;6.670;2023-03-14T05:19:28;8.80;99.90
19017;DHT22;9641;51.494;6.670;2023-03-14T05:22:11;8.80;99.90
19017;DHT22;9641;51.494;6.670;2023-03-14T05:25:09;8.90;99.90
19017;DHT22;9641;51.494;6.670;2023-03-14T05:27:53;8.90;99.90
19017;DHT22;9641;51.494;6.670;2023-03-14T05:30:31;8.90;99.90
19017;DHT22;9641;51.494;6.670;2023-03-14T05:33:09;8.90;99.90
19017;DHT22;9641;51.494;6.670;2023-03-14T05:36:03;8.90;99.90
19017;DHT22;9641;51.494;6.670;2023-03-14T05:38:48;8.90;99.90
19017;DHT22;9641;51.494;6.670;2023-03-14T05:41:40;8.90;99.90
19017;DHT22;9641;51.494;6.670;2023-03-14T05:44:19;8.90;99.90
19017;DHT22;9641;51.494;6.670;2023-03-14T05:47:09;8.90;99.90
19017;DHT22;9641;51.494;6.670;2023-03-14T05:49:55;8.90;99.90
19017;DHT22;9641;51.494;6.670;2023-03-14T05:52:47;8.90;99.90
19017;DHT22;9641;51.494;6.670;2023-03-14T05:55:37;8.90;99.90
19017;DHT22;9641;51.494;6.670;2023-03-14T05:58:19;9.00;99.90
19017;DHT22;9641;51.494;6.670;2023-03-14T06:01:07;9.00;99.90
19017;DHT22;9641;51.494;6.670;2023-03-14T06:04:03;9.00;99.90
19017;DHT22;9641;51.494;6.670;2023-03-14T06:06:30;9.10;99.90
19017;DHT22;9641;51.494;6.670;2023-03-14T06:08:58;9.10;99.90
19017;DHT22;9641;51.494;6.670;2023-03-14T06:11:25;9.00;99.90
19017;DHT22;9641;51.494;6.670;2023-03-14T06:13:54;9.10;99.90
19017;DHT22;9641;51.494;6.670;2023-03-14T06:16:21;9.10;99.90
19017;DHT22;9641;51.494;6.670;2023-03-14T06:18:48;9.10;99.90
19017;DHT22;9641;51.494;6.670;2023-03-14T06:21:18;9.10;99.90
19017;DHT22;9641;51.494;6.670;2023-03-14T06:23:46;9.20;99.90
19017;DHT22;9641;51.494;6.670;2023-03-14T06:26:13;9.20;99.90
19017;DHT22;9641;51.494;6.670;2023-03-14T06:28:40;9.20;99.90
19017;DHT22;9641;51.494;6.670;2023-03-14T06:31:09;9.30;99.90
19017;DHT22;9641;51.494;6.670;2023-03-14T06:33:45;9.30;99.90
19017;DHT22;9641;51.494;6.670;2023-03-14T06:36:13;9.30;99.90
19017;DHT22;9641;51.494;6.670;2023-03-14T06:38:43;9.40;99.90
19017;DHT22;9641;51.494;6.670;2023-03-14T06:41:15;9.40;99.90
19017;DHT22;9641;51.494;6.670;2023-03-14T06:43:44;9.40;99.90
19017;DHT22;9641;51.494;6.670;2023-03-14T06:46:13;9.50;99.90
19017;DHT22;9641;51.494;6.670;2023-03-14T06:48:42;9.50;99.90
19017;DHT22;9641;51.494;6.670;2023-03-14T06:51:12;9.50;99.90
19017;DHT22;9641;51.494;6.670;2023-03-14T06:53:39;9.60;99.90
19017;DHT22;9641;51.494;6.670;2023-03-14T06:56:07;9.60;99.90
19017;DHT22;9641;51.494;6.670;2023-03-14T06:58:34;9.60;99.90
19017;DHT22;9641;51.494;6.670;2023-03-14T07:01:05;9.70;99.90
19017;DHT22;9641;51.494;6.670;2023-03-14T07:03:40;9.70;99.90
19017;DHT22;9641;51.494;6.670;2023-03-14T07:06:08;9.70;99.90
19017;DHT22;9641;51.494;6.670;2023-03-14T07:08:36;9.70;99.90
19017;DHT22;9641;51.494;6.670;2023-03-14T07:11:05;9.70;99.90
19017;DHT22;9641;51.494;6.670;2023-03-14T07:13:33;9.70;99.90
19017;DHT22;9641;51.494;6.670;2023-03-14T07:16:05;9.70;99.90
19017;DHT22;9641;51.494;6.670;2023-03-14T07:18:32;9.70;99.90
19017;DHT22;9641;51.494;6.670;2023-03-14T07:21:05;9.80;99.90
19017;DHT22;9641;51.494;6.670;2023-03-14T07:23:32;9.80;99.90
19017;DHT22;9641;51.494;6.670;2023-03-14T07:26:00;9.80;99.90
19017;DHT22;9641;51.494;6.670;2023-03-14T07:28:28;9.80;99.90
19017;DHT22;9641;51.494;6.670;2023-03-14T07:31:01;9.80;99.90
19017;DHT22;9641;51.494;6.670;2023-03-14T07:33:31;9.90;99.90
19017;DHT22;9641;51.494;6.670;2023-03-14T07:35:59;9.90;99.90
19017;DHT22;9641;51.494;6.670;2023-03-14T07:38:28;9.90;99.90
19017;DHT22;9641;51.494;6.670;2023-03-14T07:41:14;9.90;99.90
19017;DHT22;9641;51.494;6.670;2023-03-14T07:44:02;9.90;99.90
19017;DHT22;9641;51.494;6.670;2023-03-14T07:46:29;9.90;99.90
19017;DHT22;9641;51.494;6.670;2023-03-14T07:48:55;9.90;99.90
19017;DHT22;9641;51.494;6.670;2023-03-14T07:51:22;9.90;99.90
19017;DHT22;9641;51.494;6.670;2023-03-14T07:53:51;9.90;99.90
19017;DHT22;9641;51.494;6.670;2023-03-14T07:56:18;9.90;99.90
19017;DHT22;9641;51.494;6.670;2023-03-14T07:58:45;9.90;99.90
19017;DHT22;9641;51.494;6.670;2023-03-14T08:01:12;9.90;99.90
19017;DHT22;9641;51.494;6.670;2023-03-14T08:03:40;9.90;99.90
19017;DHT22;9641;51.494;6.670;2023-03-14T08:06:07;10.00;99.90
19017;DHT22;9641;51.494;6.670;2023-03-14T08:08:34;10.10;99.90
19017;DHT22;9641;51.494;6.670;2023-03-14T08:11:06;10.10;99.90
19017;DHT22;9641;51.494;6.670;2023-03-14T08:13:34;10.20;99.90
19017;DHT22;9641;51.494;6.670;2023-03-14T08:16:01;10.30;99.90
19017;DHT22;9641;51.494;6.670;2023-03-14T08:18:28;10.40;99.90
19017;DHT22;9641;51.494;6.670;2023-03-14T08:20:56;10.30;99.90
19017;DHT22;9641;51.494;6.670;2023-03-14T08:23:23;10.40;99.90
19017;DHT22;9641;51.494;6.670;2023-03-14T08:25:51;10.40;99.90
19017;DHT22;9641;51.494;6.670;2023-03-14T08:28:19;10.40;99.90
19017;DHT22;9641;51.494;6.670;2023-03-14T08:30:46;10.40;99.90
19017;DHT22;9641;51.494;6.670;2023-03-14T08:33:13;10.40;99.90
19017;DHT22;9641;51.494;6.670;2023-03-14T08:35:41;10.40;99.90
19017;DHT22;9641;51.494;6.670;2023-03-14T08:38:08;10.30;99.90
19017;DHT22;9641;51.494;6.670;2023-03-14T08:40:35;10.20;99.90
19017;DHT22;9641;51.494;6.670;2023-03-14T08:43:02;10.20;99.90
19017;DHT22;9641;51.494;6.670;2023-03-14T08:45:30;10.20;99.90
19017;DHT22;9641;51.494;6.670;2023-03-14T08:47:58;10.20;99.90
19017;DHT22;9641;51.494;6.670;2023-03-14T08:50:25;10.20;99.90
19017;DHT22;9641;51.494;6.670;2023-03-14T08:52:52;10.30;99.90
19017;DHT22;9641;51.494;6.670;2023-03-14T08:55:19;10.30;99.90
19017;DHT22;9641;51.494;6.670;2023-03-14T08:57:46;10.20;99.90
19017;DHT22;9641;51.494;6.670;2023-03-14T09:00:14;10.20;99.90
19017;DHT22;9641;51.494;6.670;2023-03-14T09:02:42;9.90;99.90
19017;DHT22;9641;51.494;6.670;2023-03-14T09:05:09;9.10;99.90
19017;DHT22;9641;51.494;6.670;2023-03-14T09:07:37;8.60;99.90
19017;DHT22;9641;51.494;6.670;2023-03-14T09:10:05;8.40;99.90
19017;DHT22;9641;51.494;6.670;2023-03-14T09:12:32;8.40;99.90
19017;DHT22;9641;51.494;6.670;2023-03-14T09:14:59;8.40;99.90
19017;DHT22;9641;51.494;6.670;2023-03-14T09:17:26;8.50;99.90
19017;DHT22;9641;51.494;6.670;2023-03-14T09:19:55;8.50;99.90
19017;DHT22;9641;51.494;6.670;2023-03-14T09:22:21;8.50;99.90
19017;DHT22;9641;51.494;6.670;2023-03-14T09:24:49;8.50;99.90
19017;DHT22;9641;51.494;6.670;2023-03-14T09:27:16;8.40;99.90
19017;DHT22;9641;51.494;6.670;2023-03-14T09:29:43;8.40;99.90
19017;DHT22;9641;51.494;6.670;2023-03-14T09:32:10;8.40;99.90
19017;DHT22;9641;51.494;6.670;2023-03-14T09:34:37;8.30;99.90
19017;DHT22;9641;51.494;6.670;2023-03-14T09:37:06;8.20;99.90
19017;DHT22;9641;51.494;6.670;2023-03-14T09:39:32;8.20;99.90
19017;DHT22;9641;51.494;6.670;2023-03-14T09:42:02;8.20;99.90
19017;DHT22;9641;51.494;6.670;2023-03-14T09:44:32;8.20;99.90
19017;DHT22;9641;51.494;6.670;2023-03-14T09:47:04;8.10;99.90
19017;DHT22;9641;51.494;6.670;2023-03-14T09:49:34;8.00;99.90
19017;DHT22;9641;51.494;6.670;2023-03-14T09:52:05;8.00;99.90
19017;DHT22;9641;51.494;6.670;2023-03-14T09:54:38;8.00;99.90
19017;DHT22;9641;51.494;6.670;2023-03-14T09:57:08;8.00;99.90
19017;DHT22;9641;51.494;6.670;2023-03-14T09:59:38;8.00;99.90
19017;DHT22;9641;51.494;6.670;2023-03-14T10:02:14;8.00;99.90
19017;DHT22;9641;51.494;6.670;2023-03-14T10:04:42;8.10;99.90
19017;DHT22;9641;51.494;6.670;2023-03-14T10:07:13;8.20;99.90
19017;DHT22;9641;51.494;6.670;2023-03-14T10:09:45;8.20;99.90
19017;DHT22;9641;51.494;6.670;2023-03-14T10:12:12;8.20;99.90
19017;DHT22;9641;51.494;6.670;2023-03-14T10:14:46;8.20;99.90
19017;DHT22;9641;51.494;6.670;2023-03-14T10:17:13;8.10;99.90
19017;DHT22;9641;51.494;6.670;2023-03-14T10:19:51;8.00;99.90
19017;DHT22;9641;51.494;6.670;2023-03-14T10:22:19;7.80;99.90
19017;DHT22;9641;51.494;6.670;2023-03-14T10:24:52;7.70;99.90
19017;DHT22;9641;51.494;6.670;2023-03-14T10:27:21;7.50;99.90
19017;DHT22;9641;51.494;6.670;2023-03-14T10:29:53;7.50;99.90
19017;DHT22;9641;51.494;6.670;2023-03-14T10:32:23;7.40;99.90
19017;DHT22;9641;51.494;6.670;2023-03-14T10:35:07;7.30;99.90
19017;DHT22;9641;51.494;6.670;2023-03-14T10:37:35;7.10;99.90
19017;DHT22;9641;51.494;6.670;2023-03-14T10:40:05;7.00;99.90
19017;DHT22;9641;51.494;6.670;2023-03-14T10:42:34;6.80;99.90
19017;DHT22;9641;51.494;6.670;2023-03-14T10:45:21;6.60;99.90
19017;DHT22;9641;51.494;6.670;2023-03-14T10:47:50;6.60;99.90
19017;DHT22;9641;51.494;6.670;2023-03-14T10:50:25;6.80;99.90
19017;DHT22;9641;51.494;6.670;2023-03-14T10:52:54;6.90;99.90
19017;DHT22;9641;51.494;6.670;2023-03-14T10:55:24;7.20;99.90
19017;DHT22;9641;51.494;6.670;2023-03-14T10:57:51;7.40;99.90
19017;DHT22;9641;51.494;6.670;2023-03-14T11:00:21;7.60;99.90
19017;DHT22;9641;51.494;6.670;2023-03-14T11:02:58;7.80;99.90
19017;DHT22;9641;51.494;6.670;2023-03-14T11:05:31;8.10;99.90
19017;DHT22;9641;51.494;6.670;2023-03-14T11:08:02;8.40;99.90
19017;DHT22;9641;51.494;6.670;2023-03-14T11:10:33;8.40;99.90
19017;DHT22;9641;51.494;6.670;2023-03-14T11:13:08;8.40;99.90
19017;DHT22;9641;51.494;6.670;2023-03-14T11:15:43;8.20;99.90
19017;DHT22;9641;51.494;6.670;2023-03-14T11:18:29;8.10;99.90
19017;DHT22;9641;51.494;6.670;2023-03-14T11:21:04;8.20;99.90
19017;DHT22;9641;51.494;6.670;2023-03-14T11:23:42;8.30;26.80
19017;DHT22;9641;51.494;6.670;2023-03-14T11:26:24;8.40;62.10
19017;DHT22;9641;51.494;6.670;2023-03-14T11:28:57;8.30;96.40
19017;DHT22;9641;51.494;6.670;2023-03-14T11:31:27;8.20;99.90
19017;DHT22;9641;51.494;6.670;2023-03-14T11:33:59;8.30;99.90
19017;DHT22;9641;51.494;6.670;2023-03-14T11:36:30;8.10;99.90
19017;DHT22;9641;51.494;6.670;2023-03-14T11:38:59;7.90;99.90
19017;DHT22;9641;51.494;6.670;2023-03-14T11:41:31;7.90;99.90
19017;DHT22;9641;51.494;6.670;2023-03-14T11:44:03;7.90;99.90
19017;DHT22;9641;51.494;6.670;2023-03-14T11:46:34;8.10;96.00
19017;DHT22;9641;51.494;6.670;2023-03-14T11:49:06;8.40;99.90
19017;DHT22;9641;51.494;6.670;2023-03-14T11:51:35;8.70;26.90
19017;DHT22;9641;51.494;6.670;2023-03-14T11:54:13;9.10;1.00
19017;DHT22;9641;51.494;6.670;2023-03-14T11:56:50;9.60;1.00
19017;DHT22;9641;51.494;6.670;2023-03-14T11:59:21;10.30;1.00
19017;DHT22;9641;51.494;6.670;2023-03-14T12:01:54;10.30;99.90
19017;DHT22;9641;51.494;6.670;2023-03-14T12:04:33;10.00;1.00
19017;DHT22;9641;51.494;6.670;2023-03-14T12:07:14;9.80;99.90
19017;DHT22;9641;51.494;6.670;2023-03-14T12:09:41;9.90;99.90
19017;DHT22;9641;51.494;6.670;2023-03-14T12:12:13;10.50;1.00
19017;DHT22;9641;51.494;6.670;2023-03-14T12:14:52;10.10;1.00
19017;DHT22;9641;51.494;6.670;2023-03-14T12:17:22;9.30;99.90
19017;DHT22;9641;51.494;6.670;2023-03-14T12:20:01;8.60;1.00
19017;DHT22;9641;51.494;6.670;2023-03-14T12:22:32;8.20;1.00
19017;DHT22;9641;51.494;6.670;2023-03-14T12:25:04;7.80;99.90
19017;DHT22;9641;51.494;6.670;2023-03-14T12:27:47;7.80;63.90
19017;DHT22;9641;51.494;6.670;2023-03-14T12:30:27;8.20;1.00
19017;DHT22;9641;51.494;6.670;2023-03-14T12:38:59;8.60;99.90
19017;DHT22;9641;51.494;6.670;2023-03-14T12:41:34;9.10;1.00
19017;DHT22;9641;51.494;6.670;2023-03-14T12:47:46;10.00;32.80
19017;DHT22;9641;51.494;6.670;2023-03-14T12:50:24;9.80;1.00
19017;DHT22;9641;51.494;6.670;2023-03-14T12:53:07;9.80;99.90
19017;DHT22;9641;51.494;6.670;2023-03-14T12:55:44;9.60;99.90
19017;DHT22;9641;51.494;6.670;2023-03-14T12:58:16;9.00;1.00
19017;DHT22;9641;51.494;6.670;2023-03-14T13:00:54;8.60;1.00
19017;DHT22;9641;51.494;6.670;2023-03-14T13:03:25;7.90;1.00
19017;DHT22;9641;51.494;6.670;2023-03-14T13:05:56;7.40;99.90
19017;DHT22;9641;51.494;6.670;2023-03-14T13:08:36;7.20;1.00
19017;DHT22;9641;51.494;6.670;2023-03-14T13:11:07;7.10;1.00
19017;DHT22;9641;51.494;6.670;2023-03-14T13:13:36;7.10;1.00
19017;DHT22;9641;51.494;6.670;2023-03-14T13:16:04;7.30;1.00
19017;DHT22;9641;51.494;6.670;2023-03-14T13:18:37;7.40;1.00
19017;DHT22;9641;51.494;6.670;2023-03-14T13:21:07;7.50;1.00
19017;DHT22;9641;51.494;6.670;2023-03-14T13:23:38;7.50;1.00
19017;DHT22;9641;51.494;6.670;2023-03-14T13:26:11;7.30;1.00
19017;DHT22;9641;51.494;6.670;2023-03-14T13:28:40;7.50;1.00
19017;DHT22;9641;51.494;6.670;2023-03-14T13:31:18;7.90;1.00
19017;DHT22;9641;51.494;6.670;2023-03-14T13:33:56;8.90;1.00
19017;DHT22;9641;51.494;6.670;2023-03-14T13:36:23;10.00;1.00
19017;DHT22;9641;51.494;6.670;2023-03-14T13:38:56;11.30;99.90
19017;DHT22;9641;51.494;6.670;2023-03-14T13:41:24;12.10;1.00
19017;DHT22;9641;51.494;6.670;2023-03-14T13:43:52;12.10;1.00
19017;DHT22;9641;51.494;6.670;2023-03-14T13:46:23;12.20;99.90
19017;DHT22;9641;51.494;6.670;2023-03-14T13:48:54;13.10;99.90
19017;DHT22;9641;51.494;6.670;2023-03-14T13:51:22;14.70;99.90
19017;DHT22;9641;51.494;6.670;2023-03-14T13:53:52;15.40;1.00
19017;DHT22;9641;51.494;6.670;2023-03-14T13:56:20;15.20;1.00
19017;DHT22;9641;51.494;6.670;2023-03-14T13:58:48;14.30;1.00
19017;DHT22;9641;51.494;6.670;2023-03-14T14:01:17;14.20;1.00
19017;DHT22;9641;51.494;6.670;2023-03-14T14:03:46;13.00;1.00
19017;DHT22;9641;51.494;6.670;2023-03-14T14:06:28;11.90;1.00
19017;DHT22;9641;51.494;6.670;2023-03-14T14:08:57;13.30;1.00
19017;DHT22;9641;51.494;6.670;2023-03-14T14:11:38;15.20;1.00
19017;DHT22;9641;51.494;6.670;2023-03-14T14:14:12;14.90;1.00
19017;DHT22;9641;51.494;6.670;2023-03-14T14:16:42;14.40;1.00
19017;DHT22;9641;51.494;6.670;2023-03-14T14:19:10;15.00;1.00
19017;DHT22;9641;51.494;6.670;2023-03-14T14:21:39;14.80;1.00
19017;DHT22;9641;51.494;6.670;2023-03-14T14:24:07;15.10;1.00
19017;DHT22;9641;51.494;6.670;2023-03-14T14:26:34;14.80;1.00
19017;DHT22;9641;51.494;6.670;2023-03-14T14:29:04;15.10;1.00
19017;DHT22;9641;51.494;6.670;2023-03-14T14:31:31;15.60;1.00
19017;DHT22;9641;51.494;6.670;2023-03-14T14:33:59;17.10;1.00
19017;DHT22;9641;51.494;6.670;2023-03-14T14:36:29;17.10;1.00
19017;DHT22;9641;51.494;6.670;2023-03-14T14:39:02;17.40;1.00
19017;DHT22;9641;51.494;6.670;2023-03-14T14:41:32;18.10;1.00
19017;DHT22;9641;51.494;6.670;2023-03-14T14:44:00;17.70;99.90
19017;DHT22;9641;51.494;6.670;2023-03-14T14:46:31;16.80;99.90
19017;DHT22;9641;51.494;6.670;2023-03-14T14:49:03;15.40;99.90
19017;DHT22;9641;51.494;6.670;2023-03-14T14:51:34;14.20;99.90
19017;DHT22;9641;51.494;6.670;2023-03-14T14:54:11;13.80;99.90
19017;DHT22;9641;51.494;6.670;2023-03-14T14:56:39;13.80;99.90
19017;DHT22;9641;51.494;6.670;2023-03-14T14:59:22;13.20;99.90
19017;DHT22;9641;51.494;6.670;2023-03-14T15:01:50;12.80;99.90
19017;DHT22;9641;51.494;6.670;2023-03-14T15:04:21;12.00;99.90
19017;DHT22;9641;51.494;6.670;2023-03-14T15:06:49;11.70;99.90
19017;DHT22;9641;51.494;6.670;2023-03-14T15:09:19;12.00;99.90
19017;DHT22;9641;51.494;6.670;2023-03-14T15:11:47;11.60;99.90
19017;DHT22;9641;51.494;6.670;2023-03-14T15:14:14;10.80;99.90
19017;DHT22;9641;51.494;6.670;2023-03-14T15:16:41;10.50;99.90
19017;DHT22;9641;51.494;6.670;2023-03-14T15:19:19;10.50;99.90
19017;DHT22;9641;51.494;6.670;2023-03-14T15:21:46;10.20;99.90
19017;DHT22;9641;51.494;6.670;2023-03-14T15:24:13;10.60;99.90
19017;DHT22;9641;51.494;6.670;2023-03-14T15:26:41;11.00;99.90
19017;DHT22;9641;51.494;6.670;2023-03-14T15:29:10;10.80;99.90
19017;DHT22;9641;51.494;6.670;2023-03-14T15:31:38;10.40;99.90
19017;DHT22;9641;51.494;6.670;2023-03-14T15:34:05;10.20;99.90
19017;DHT22;9641;51.494;6.670;2023-03-14T15:36:34;9.90;99.90
19017;DHT22;9641;51.494;6.670;2023-03-14T15:39:19;9.80;99.90
19017;DHT22;9641;51.494;6.670;2023-03-14T15:42:30;9.90;99.90
19017;DHT22;9641;51.494;6.670;2023-03-14T15:45:32;10.00;99.90
19017;DHT22;9641;51.494;6.670;2023-03-14T15:47:58;9.90;99.90
19017;DHT22;9641;51.494;6.670;2023-03-14T15:50:25;9.60;99.90
19017;DHT22;9641;51.494;6.670;2023-03-14T15:52:52;9.40;99.90
19017;DHT22;9641;51.494;6.670;2023-03-14T15:55:19;9.40;99.90
19017;DHT22;9641;51.494;6.670;2023-03-14T15:57:48;9.50;99.90
19017;DHT22;9641;51.494;6.670;2023-03-14T16:00:18;9.70;99.90
19017;DHT22;9641;51.494;6.670;2023-03-14T16:02:47;9.70;99.90
19017;DHT22;9641;51.494;6.670;2023-03-14T16:05:14;9.80;99.90
19017;DHT22;9641;51.494;6.670;2023-03-14T16:07:41;9.80;99.90
19017;DHT22;9641;51.494;6.670;2023-03-14T16:10:11;9.80;99.90
19017;DHT22;9641;51.494;6.670;2023-03-14T16:12:39;9.50;99.90
19017;DHT22;9641;51.494;6.670;2023-03-14T16:15:09;9.20;99.90
19017;DHT22;9641;51.494;6.670;2023-03-14T16:17:36;9.10;99.90
19017;DHT22;9641;51.494;6.670;2023-03-14T16:20:06;9.00;99.90
19017;DHT22;9641;51.494;6.670;2023-03-14T16:22:33;8.90;99.90
19017;DHT22;9641;51.494;6.670;2023-03-14T16:25:01;8.80;99.90
19017;DHT22;9641;51.494;6.670;2023-03-14T16:27:28;8.60;99.90
19017;DHT22;9641;51.494;6.670;2023-03-14T16:29:56;8.50;99.90
19017;DHT22;9641;51.494;6.670;2023-03-14T16:32:25;8.60;99.90